Terminal Aerodrome Forecast
Issued by NWS

Home | Current Version | Previous Version | Text Only | Print | Product List | Glossary On
Versions: 1 2 3 4 5 6 7 8 9 10 11 12 13 14 15 16 17 18 19
000
FTUS46 KLOX 301700
TAFOXR
TAF
KOXR 301721Z 3018/3118 VRB03KT P6SM FEW006
     FM301900 27012KT P6SM SKC
     FM310300 VRB03KT P6SM SKC
     FM311100 VRB03KT 2SM BR OVC004
     FM311600 VRB03KT 5SM BR BKN006=

USA.gov is the U.S. government's official web portal to all federal, state and local government web resources and services.